Time;durP1;ratioP1;P1;durP2;ratioP2;P2;SDS_P1;SDS_P2;PMS_P1;PMS_P2;Temp;Humidity;BMP_temperature;BMP_pressure;BME280_temperature;BME280_humidity;BME280_pressure;Samples;Min_cycle;Max_cycle;Signal;HPM_P1;HPM_P2
2023/07/31 00:00:51;;;;;;;16.92;5.60;;;;;;;;;;5040356;28;20497;-55
2023/07/31 00:03:18;;;;;;;11.70;5.57;;;;;;;;;;5040117;28;20860;-57
2023/07/31 00:05:45;;;;;;;16.70;5.80;;;;;;;;;;5040534;28;20422;-58
2023/07/31 00:08:12;;;;;;;15.18;6.15;;;;;;;;;;5040286;28;20427;-58
2023/07/31 00:10:39;;;;;;;13.82;5.78;;;;;;;;;;5040649;28;20832;-59
2023/07/31 00:13:06;;;;;;;14.97;5.80;;;;;;;;;;5045516;28;20423;-58
2023/07/31 00:15:34;;;;;;;14.38;6.07;;;;;;;;;;5039506;28;20427;-57
2023/07/31 00:18:01;;;;;;;17.08;6.28;;;;;;;;;;5041594;28;20413;-57
2023/07/31 00:20:29;;;;;;;11.50;5.50;;;;;;;;;;5038777;28;20553;-58
2023/07/31 00:22:56;;;;;;;15.02;6.47;;;;;;;;;;5041572;28;21034;-58
2023/07/31 00:25:23;;;;;;;10.52;5.82;;;;;;;;;;5038485;28;20786;-58
2023/07/31 00:27:50;;;;;;;14.40;5.45;;;;;;;;;;5041959;28;20439;-58
2023/07/31 00:30:17;;;;;;;14.38;5.63;;;;;;;;;;5038909;28;20409;-55
2023/07/31 00:32:46;;;;;;;12.68;5.90;;;;;;;;;;5042074;28;20429;-59
2023/07/31 00:35:13;;;;;;;14.52;6.40;;;;;;;;;;5038727;28;20482;-59
2023/07/31 00:37:40;;;;;;;14.98;5.90;;;;;;;;;;5041778;28;20410;-58
2023/07/31 00:40:07;;;;;;;17.08;6.20;;;;;;;;;;5035345;28;20833;-57
2023/07/31 00:42:34;;;;;;;14.88;5.80;;;;;;;;;;5043846;28;20508;-59
2023/07/31 00:45:01;;;;;;;15.98;6.60;;;;;;;;;;5042249;28;20467;-57
2023/07/31 00:47:28;;;;;;;16.55;6.57;;;;;;;;;;5038405;28;20423;-54
2023/07/31 00:49:57;;;;;;;17.75;6.22;;;;;;;;;;5041901;28;20413;-58
2023/07/31 00:52:24;;;;;;;14.70;6.05;;;;;;;;;;5038066;28;20426;-52
2023/07/31 00:54:51;;;;;;;16.30;6.68;;;;;;;;;;5041187;28;20842;-56
2023/07/31 00:57:18;;;;;;;17.77;6.60;;;;;;;;;;5038336;28;20492;-56
2023/07/31 00:59:46;;;;;;;15.13;6.37;;;;;;;;;;5040768;28;20477;-55
2023/07/31 01:02:13;;;;;;;17.40;6.63;;;;;;;;;;5039034;28;20451;-56
2023/07/31 01:04:40;;;;;;;14.80;5.88;;;;;;;;;;5037024;28;20419;-55
2023/07/31 01:07:12;;;;;;;14.97;5.87;;;;;;;;;;5039021;28;20530;-56
2023/07/31 01:09:44;;;;;;;18.73;6.30;;;;;;;;;;5037019;28;20464;-58
2023/07/31 01:12:14;;;;;;;19.75;6.22;;;;;;;;;;5045874;28;20436;-55
2023/07/31 01:14:41;;;;;;;15.07;6.15;;;;;;;;;;5037659;28;20545;-57
2023/07/31 01:17:08;;;;;;;14.82;5.75;;;;;;;;;;5038174;28;20420;-58
2023/07/31 01:19:35;;;;;;;15.93;6.00;;;;;;;;;;5039361;28;20881;-56
2023/07/31 01:22:13;;;;;;;16.63;6.35;;;;;;;;;;5039177;28;20413;-56
2023/07/31 01:24:49;;;;;;;18.90;5.80;;;;;;;;;;5037848;28;20418;-56
2023/07/31 01:27:22;;;;;;;16.55;5.95;;;;;;;;;;5035021;28;20953;-58
2023/07/31 01:29:53;;;;;;;16.10;6.28;;;;;;;;;;5041465;28;20472;-56
2023/07/31 01:32:21;;;;;;;14.02;5.38;;;;;;;;;;5037920;28;20532;-54
2023/07/31 01:34:48;;;;;;;15.55;5.65;;;;;;;;;;5041670;28;20417;-56
2023/07/31 01:37:15;;;;;;;15.48;5.50;;;;;;;;;;5038658;28;20421;-57
2023/07/31 01:39:42;;;;;;;12.50;5.13;;;;;;;;;;5041774;28;20887;-58
2023/07/31 01:42:09;;;;;;;11.35;5.05;;;;;;;;;;5042073;28;20409;-58
2023/07/31 01:44:37;;;;;;;12.73;5.18;;;;;;;;;;5043903;28;20503;-58
2023/07/31 01:47:04;;;;;;;15.63;5.40;;;;;;;;;;5038628;28;20974;-56
2023/07/31 01:49:31;;;;;;;10.75;4.95;;;;;;;;;;5039732;28;20427;-58
2023/07/31 01:51:58;;;;;;;11.73;4.60;;;;;;;;;;5039073;28;20429;-56
2023/07/31 01:54:25;;;;;;;14.23;5.22;;;;;;;;;;5036214;28;20885;-57
2023/07/31 01:56:52;;;;;;;13.38;5.32;;;;;;;;;;5039082;28;20413;-58
2023/07/31 01:59:19;;;;;;;14.87;5.30;;;;;;;;;;5037765;28;20419;-57
2023/07/31 02:01:47;;;;;;;14.10;5.18;;;;;;;;;;5039249;28;20411;-56
2023/07/31 02:04:14;;;;;;;12.48;5.13;;;;;;;;;;5038375;28;20975;-58
2023/07/31 02:06:41;;;;;;;14.55;4.93;;;;;;;;;;5035383;28;20415;-57
2023/07/31 02:09:08;;;;;;;15.47;5.00;;;;;;;;;;5039102;28;20867;-57
2023/07/31 02:11:35;;;;;;;13.13;5.35;;;;;;;;;;5040677;28;20487;-54
2023/07/31 02:14:02;;;;;;;14.20;5.30;;;;;;;;;;5043478;28;20425;-58
2023/07/31 02:16:29;;;;;;;16.40;5.20;;;;;;;;;;5037384;28;20419;-58
2023/07/31 02:18:58;;;;;;;14.80;5.20;;;;;;;;;;5040513;28;20463;-57
2023/07/31 02:21:25;;;;;;;12.10;5.15;;;;;;;;;;5037507;28;20893;-58
2023/07/31 02:23:52;;;;;;;11.73;4.78;;;;;;;;;;5040611;28;20425;-57
2023/07/31 02:26:19;;;;;;;11.73;5.33;;;;;;;;;;5037373;28;20413;-58
2023/07/31 02:28:46;;;;;;;13.40;5.20;;;;;;;;;;5039376;28;20419;-58
2023/07/31 02:31:13;;;;;;;12.48;5.22;;;;;;;;;;5035110;28;20847;-58
2023/07/31 02:33:40;;;;;;;12.77;5.72;;;;;;;;;;5036128;28;20424;-57
2023/07/31 02:36:08;;;;;;;12.82;4.75;;;;;;;;;;5037735;28;20443;-58
2023/07/31 02:38:35;;;;;;;14.55;5.10;;;;;;;;;;5040920;28;20827;-58
2023/07/31 02:41:02;;;;;;;15.63;5.00;;;;;;;;;;5044877;28;20421;-58
2023/07/31 02:43:29;;;;;;;15.50;4.95;;;;;;;;;;5045377;28;20972;-57
2023/07/31 02:45:56;;;;;;;14.30;5.68;;;;;;;;;;5045259;28;20413;-57
2023/07/31 02:48:23;;;;;;;13.52;5.15;;;;;;;;;;5040911;28;20414;-57
2023/07/31 02:50:50;;;;;;;10.65;4.88;;;;;;;;;;5043556;28;20417;-57
2023/07/31 02:53:18;;;;;;;15.13;5.15;;;;;;;;;;5040440;28;20491;-57
2023/07/31 02:55:45;;;;;;;16.05;4.80;;;;;;;;;;5042852;28;20426;-56
2023/07/31 02:58:12;;;;;;;14.15;5.03;;;;;;;;;;5041263;28;20421;-57
2023/07/31 03:00:43;;;;;;;15.38;5.22;;;;;;;;;;5042086;28;20556;-57
2023/07/31 03:03:10;;;;;;;14.10;4.90;;;;;;;;;;5041357;28;20930;-57
2023/07/31 03:05:37;;;;;;;11.35;4.80;;;;;;;;;;5041732;28;20438;-57
2023/07/31 03:08:04;;;;;;;16.90;5.40;;;;;;;;;;5041317;28;20914;-58
2023/07/31 03:10:33;;;;;;;12.48;5.13;;;;;;;;;;5041155;28;20419;-56
2023/07/31 03:13:00;;;;;;;12.30;4.75;;;;;;;;;;5037759;28;20773;-55
2023/07/31 03:15:27;;;;;;;17.20;5.22;;;;;;;;;;5034892;28;20475;-56
2023/07/31 03:17:54;;;;;;;14.13;5.05;;;;;;;;;;5038820;28;20423;-58
2023/07/31 03:20:21;;;;;;;14.57;5.27;;;;;;;;;;5038929;28;20494;-56
2023/07/31 03:22:48;;;;;;;17.92;5.43;;;;;;;;;;5032904;28;20411;-57
2023/07/31 03:25:15;;;;;;;13.52;5.53;;;;;;;;;;5039027;28;20956;-56
2023/07/31 03:27:43;;;;;;;13.80;5.45;;;;;;;;;;5039575;28;20423;-58
2023/07/31 03:30:10;;;;;;;10.40;4.63;;;;;;;;;;5038955;28;20801;-57
2023/07/31 03:32:37;;;;;;;14.25;4.95;;;;;;;;;;5037561;28;20429;-56
2023/07/31 03:35:05;;;;;;;13.80;5.30;;;;;;;;;;5038372;28;20419;-57
2023/07/31 03:37:32;;;;;;;11.88;5.03;;;;;;;;;;5038626;28;20429;-55
2023/07/31 03:39:59;;;;;;;11.60;4.70;;;;;;;;;;5039287;28;20407;-57
2023/07/31 03:42:26;;;;;;;12.00;4.90;;;;;;;;;;5041736;28;20405;-58
2023/07/31 03:44:54;;;;;;;11.68;4.85;;;;;;;;;;5045251;28;20405;-57
2023/07/31 03:47:21;;;;;;;12.70;5.43;;;;;;;;;;5039347;28;20956;-55
2023/07/31 03:49:48;;;;;;;11.93;5.13;;;;;;;;;;5042755;28;20467;-57
2023/07/31 03:52:15;;;;;;;12.63;4.88;;;;;;;;;;5035972;28;20508;-58
2023/07/31 03:54:44;;;;;;;10.52;4.80;;;;;;;;;;5042020;28;20421;-57
2023/07/31 03:57:11;;;;;;;10.93;4.65;;;;;;;;;;5039750;28;20418;-56
2023/07/31 03:59:39;;;;;;;11.13;5.00;;;;;;;;;;5041428;28;20442;-56
2023/07/31 04:02:07;;;;;;;11.98;4.85;;;;;;;;;;5040535;28;20849;-57
2023/07/31 04:04:34;;;;;;;13.93;4.95;;;;;;;;;;5040818;28;20522;-54
2023/07/31 04:07:01;;;;;;;11.80;4.50;;;;;;;;;;5040866;28;20406;-57
2023/07/31 04:09:28;;;;;;;14.98;5.00;;;;;;;;;;5036692;28;20441;-57
2023/07/31 04:11:55;;;;;;;13.55;5.13;;;;;;;;;;5045022;28;20826;-57
2023/07/31 04:14:22;;;;;;;13.05;5.28;;;;;;;;;;5041245;28;20446;-56
2023/07/31 04:16:49;;;;;;;12.13;5.45;;;;;;;;;;5040659;28;20411;-58
2023/07/31 04:19:17;;;;;;;10.33;4.77;;;;;;;;;;5039765;28;20411;-54
2023/07/31 04:21:44;;;;;;;14.30;5.70;;;;;;;;;;5037172;28;20419;-56
2023/07/31 04:24:11;;;;;;;13.52;4.95;;;;;;;;;;5040566;28;20415;-56
2023/07/31 04:26:38;;;;;;;13.57;5.05;;;;;;;;;;5039819;28;20415;-57
2023/07/31 04:29:05;;;;;;;12.30;4.75;;;;;;;;;;5041072;28;20413;-57
2023/07/31 04:31:32;;;;;;;13.93;5.20;;;;;;;;;;5039140;28;20496;-56
2023/07/31 04:33:59;;;;;;;11.70;5.50;;;;;;;;;;5039519;28;20530;-56
2023/07/31 04:36:27;;;;;;;11.52;5.22;;;;;;;;;;5039815;28;20506;-55
2023/07/31 04:38:54;;;;;;;10.20;4.72;;;;;;;;;;5038170;28;20881;-58
2023/07/31 04:41:21;;;;;;;12.40;4.85;;;;;;;;;;5048042;28;20419;-58
2023/07/31 04:43:48;;;;;;;12.68;5.25;;;;;;;;;;5046528;28;20823;-56
2023/07/31 04:46:15;;;;;;;13.83;5.13;;;;;;;;;;5045770;28;20421;-58
2023/07/31 04:48:44;;;;;;;10.93;4.72;;;;;;;;;;5039927;28;20415;-58
2023/07/31 04:51:11;;;;;;;12.45;5.38;;;;;;;;;;5035124;28;20409;-55
2023/07/31 04:53:39;;;;;;;12.35;5.10;;;;;;;;;;5038043;28;20461;-58
2023/07/31 04:56:06;;;;;;;9.88;5.03;;;;;;;;;;5041361;28;20422;-55
2023/07/31 04:58:33;;;;;;;12.52;6.03;;;;;;;;;;5038111;28;20419;-54
2023/07/31 05:01:00;;;;;;;12.93;5.47;;;;;;;;;;5033211;28;20490;-56
2023/07/31 05:03:27;;;;;;;12.52;5.90;;;;;;;;;;5031281;28;20407;-59
2023/07/31 05:05:54;;;;;;;15.63;5.65;;;;;;;;;;5046234;28;20440;-58
2023/07/31 05:08:21;;;;;;;11.85;5.40;;;;;;;;;;5043801;28;20409;-61
2023/07/31 05:10:49;;;;;;;14.60;5.47;;;;;;;;;;5047534;28;20467;-58
2023/07/31 05:13:16;;;;;;;13.82;5.30;;;;;;;;;;5042721;28;20429;-62
2023/07/31 05:15:43;;;;;;;13.82;5.50;;;;;;;;;;5041736;28;20473;-62
2023/07/31 05:18:10;;;;;;;13.80;5.35;;;;;;;;;;5042528;28;20455;-61
2023/07/31 05:20:37;;;;;;;11.55;5.35;;;;;;;;;;5037754;28;20779;-61
2023/07/31 05:23:04;;;;;;;13.30;5.63;;;;;;;;;;5038948;28;20502;-59
2023/07/31 05:25:31;;;;;;;11.52;5.30;;;;;;;;;;5038911;28;20423;-59
2023/07/31 05:28:00;;;;;;;13.50;5.57;;;;;;;;;;5044565;28;21135;-59
2023/07/31 05:30:27;;;;;;;11.18;5.50;;;;;;;;;;5038502;28;20411;-56
2023/07/31 05:32:54;;;;;;;10.98;5.50;;;;;;;;;;5038422;28;20517;-58
2023/07/31 05:35:21;;;;;;;11.40;5.15;;;;;;;;;;5042119;28;20471;-58
2023/07/31 05:37:48;;;;;;;14.68;5.65;;;;;;;;;;5038129;28;20475;-57
2023/07/31 05:40:15;;;;;;;15.30;5.88;;;;;;;;;;5039270;28;20467;-56
2023/07/31 05:42:42;;;;;;;10.50;5.47;;;;;;;;;;5046237;28;20977;-55
2023/07/31 05:45:12;;;;;;;14.18;5.82;;;;;;;;;;5041654;28;20420;-58
2023/07/31 05:47:39;;;;;;;13.05;6.10;;;;;;;;;;5045790;28;20421;-56
2023/07/31 05:50:06;;;;;;;12.48;5.80;;;;;;;;;;5043664;28;20431;-56
2023/07/31 05:52:34;;;;;;;10.95;6.38;;;;;;;;;;5038301;28;20438;-53
2023/07/31 05:55:01;;;;;;;11.38;6.38;;;;;;;;;;5040376;28;20421;-55
2023/07/31 05:57:28;;;;;;;11.43;5.90;;;;;;;;;;5037108;28;20491;-56
2023/07/31 05:59:55;;;;;;;14.50;6.43;;;;;;;;;;5040862;28;20409;-55
2023/07/31 06:02:23;;;;;;;13.23;6.20;;;;;;;;;;5038884;28;20413;-57
2023/07/31 06:04:50;;;;;;;12.88;6.15;;;;;;;;;;5043027;28;20432;-57
2023/07/31 06:07:17;;;;;;;12.80;6.60;;;;;;;;;;5044152;28;20520;-59
2023/07/31 06:09:44;;;;;;;11.52;6.65;;;;;;;;;;5045445;28;20417;-59
2023/07/31 06:12:11;;;;;;;14.98;6.90;;;;;;;;;;5047472;28;20409;-60
2023/07/31 06:14:38;;;;;;;13.43;6.20;;;;;;;;;;5043511;28;20458;-56
2023/07/31 06:17:06;;;;;;;11.80;5.97;;;;;;;;;;5046754;28;20774;-58
2023/07/31 06:19:34;;;;;;;16.85;6.53;;;;;;;;;;5039409;28;20419;-58
2023/07/31 06:22:01;;;;;;;11.60;5.82;;;;;;;;;;5044372;28;20416;-57
2023/07/31 06:24:29;;;;;;;12.75;6.10;;;;;;;;;;5040765;28;20747;-55
2023/07/31 06:26:57;;;;;;;14.95;6.70;;;;;;;;;;5047344;28;20421;-58
2023/07/31 06:29:24;;;;;;;12.82;6.45;;;;;;;;;;5042442;28;20846;-58
2023/07/31 06:31:51;;;;;;;13.68;6.30;;;;;;;;;;5042343;28;20419;-57
2023/07/31 06:34:18;;;;;;;13.10;6.55;;;;;;;;;;5041349;28;20917;-58
2023/07/31 06:36:46;;;;;;;10.82;6.47;;;;;;;;;;5041041;28;20410;-56
2023/07/31 06:39:13;;;;;;;10.80;6.22;;;;;;;;;;5042026;28;20465;-58
2023/07/31 06:41:40;;;;;;;13.20;6.25;;;;;;;;;;5044460;28;20860;-58
2023/07/31 06:44:08;;;;;;;12.57;6.93;;;;;;;;;;5046686;28;20460;-57
2023/07/31 06:46:35;;;;;;;11.00;6.07;;;;;;;;;;5045251;28;20493;-57
2023/07/31 06:49:02;;;;;;;12.45;6.60;;;;;;;;;;5048327;28;20413;-58
2023/07/31 06:51:31;;;;;;;13.88;6.30;;;;;;;;;;5045520;28;20419;-59
2023/07/31 06:53:59;;;;;;;12.73;6.53;;;;;;;;;;5037436;28;20430;-59
2023/07/31 06:56:27;;;;;;;12.13;6.10;;;;;;;;;;5041832;28;20411;-58
2023/07/31 06:58:54;;;;;;;10.98;6.28;;;;;;;;;;5041440;28;20421;-59
2023/07/31 07:01:21;;;;;;;9.98;5.68;;;;;;;;;;5043798;28;20884;-62
2023/07/31 07:03:50;;;;;;;9.13;5.70;;;;;;;;;;5047129;28;20413;-60
2023/07/31 07:06:17;;;;;;;9.43;5.53;;;;;;;;;;5046306;28;20421;-60
2023/07/31 07:08:44;;;;;;;11.43;5.72;;;;;;;;;;5044214;28;20468;-61
2023/07/31 07:11:12;;;;;;;11.32;5.68;;;;;;;;;;5038275;28;20960;-58
2023/07/31 07:13:39;;;;;;;12.93;5.75;;;;;;;;;;5045276;28;20423;-57
2023/07/31 07:16:07;;;;;;;10.40;5.32;;;;;;;;;;5043245;28;20980;-60
2023/07/31 07:18:34;;;;;;;10.40;5.35;;;;;;;;;;5040002;28;20900;-60
2023/07/31 07:21:02;;;;;;;8.37;5.47;;;;;;;;;;5043386;28;20417;-57
2023/07/31 07:23:29;;;;;;;10.60;6.05;;;;;;;;;;5039690;28;20452;-58
2023/07/31 07:25:56;;;;;;;9.47;5.43;;;;;;;;;;5043547;28;20471;-57
2023/07/31 07:28:24;;;;;;;8.90;5.57;;;;;;;;;;5040225;28;20418;-58
2023/07/31 07:30:53;;;;;;;10.18;5.90;;;;;;;;;;5045035;28;20409;-58
2023/07/31 07:33:20;;;;;;;10.82;5.93;;;;;;;;;;5043288;28;20860;-55
2023/07/31 07:35:47;;;;;;;9.80;5.32;;;;;;;;;;5042173;28;20449;-57
2023/07/31 07:38:15;;;;;;;11.30;5.60;;;;;;;;;;5045494;28;20406;-58
2023/07/31 07:40:42;;;;;;;10.10;5.47;;;;;;;;;;5043996;28;20938;-58
2023/07/31 07:43:09;;;;;;;10.43;5.47;;;;;;;;;;5043015;28;20834;-57
2023/07/31 07:45:37;;;;;;;9.73;5.75;;;;;;;;;;5043620;28;20426;-59
2023/07/31 07:48:05;;;;;;;10.63;5.80;;;;;;;;;;5038961;28;20419;-58
2023/07/31 07:50:32;;;;;;;9.85;5.57;;;;;;;;;;5042840;28;20479;-56
2023/07/31 07:52:59;;;;;;;9.70;5.65;;;;;;;;;;5040237;28;20417;-53
2023/07/31 07:55:26;;;;;;;11.20;5.53;;;;;;;;;;5039846;28;20951;-59
2023/07/31 07:57:53;;;;;;;9.63;5.30;;;;;;;;;;5040497;28;20419;-58
2023/07/31 08:00:20;;;;;;;11.63;5.68;;;;;;;;;;5043821;28;20475;-58
2023/07/31 08:02:48;;;;;;;8.20;5.45;;;;;;;;;;5039558;28;20417;-59
2023/07/31 08:05:17;;;;;;;10.88;5.47;;;;;;;;;;5040867;28;20409;-57
2023/07/31 08:07:44;;;;;;;10.57;4.97;;;;;;;;;;5046126;28;20446;-60
2023/07/31 08:10:11;;;;;;;20.77;6.00;;;;;;;;;;5042333;28;20465;-59
2023/07/31 08:12:38;;;;;;;9.02;4.88;;;;;;;;;;5045121;28;21277;-58
2023/07/31 08:15:06;;;;;;;8.05;4.70;;;;;;;;;;5038160;28;20946;-57
2023/07/31 08:17:33;;;;;;;7.32;4.75;;;;;;;;;;5037695;28;21186;-57
2023/07/31 08:20:01;;;;;;;10.57;5.18;;;;;;;;;;5037238;28;20911;-58
2023/07/31 08:22:28;;;;;;;9.90;5.50;;;;;;;;;;5034529;28;20957;-57
2023/07/31 08:24:55;;;;;;;8.60;4.82;;;;;;;;;;5036915;28;20414;-57
2023/07/31 08:27:22;;;;;;;9.00;4.75;;;;;;;;;;5038734;28;20446;-54
2023/07/31 08:29:49;;;;;;;6.20;4.20;;;;;;;;;;5037329;28;20445;-56
2023/07/31 08:32:16;;;;;;;7.25;4.30;;;;;;;;;;5038972;28;20469;-60
2023/07/31 08:34:43;;;;;;;6.05;3.60;;;;;;;;;;5036353;28;20431;-58
2023/07/31 08:37:11;;;;;;;7.47;3.90;;;;;;;;;;5042157;28;20409;-55
2023/07/31 08:39:39;;;;;;;7.20;3.78;;;;;;;;;;5041782;28;20419;-59
2023/07/31 08:42:09;;;;;;;5.63;3.67;;;;;;;;;;5048826;28;20505;-58
2023/07/31 08:44:36;;;;;;;5.28;3.60;;;;;;;;;;5044519;28;20411;-58
2023/07/31 08:47:03;;;;;;;6.60;3.90;;;;;;;;;;5044079;28;20413;-56
2023/07/31 08:49:30;;;;;;;5.83;3.60;;;;;;;;;;5041777;28;20467;-60
2023/07/31 08:51:58;;;;;;;6.15;4.05;;;;;;;;;;5038579;28;20475;-59
2023/07/31 08:54:30;;;;;;;5.13;3.75;;;;;;;;;;5038169;28;20464;-58
2023/07/31 08:56:59;;;;;;;6.03;3.50;;;;;;;;;;5038432;28;20436;-60
2023/07/31 08:59:27;;;;;;;5.75;3.70;;;;;;;;;;5038022;28;20425;-57
2023/07/31 09:01:57;;;;;;;5.97;4.18;;;;;;;;;;5037945;28;20963;-59
2023/07/31 09:04:24;;;;;;;7.75;4.20;;;;;;;;;;5038125;28;20459;-60
2023/07/31 09:06:52;;;;;;;5.18;4.40;;;;;;;;;;5043626;28;20421;-58
2023/07/31 09:09:20;;;;;;;5.87;4.53;;;;;;;;;;5042072;28;20409;-66
2023/07/31 09:11:49;;;;;;;7.40;4.22;;;;;;;;;;5034924;28;20426;-60
2023/07/31 09:14:17;;;;;;;7.57;4.45;;;;;;;;;;5039740;28;20494;-58
2023/07/31 09:16:53;;;;;;;6.90;4.60;;;;;;;;;;5033574;28;20419;-57
2023/07/31 09:19:26;;;;;;;6.20;3.83;;;;;;;;;;5036972;28;20544;-60
2023/07/31 09:21:53;;;;;;;5.57;3.90;;;;;;;;;;5040314;28;20496;-60
2023/07/31 09:24:26;;;;;;;6.90;4.22;;;;;;;;;;5040432;28;20421;-61
2023/07/31 09:26:56;;;;;;;7.40;4.47;;;;;;;;;;5039812;28;20508;-60
2023/07/31 09:29:24;;;;;;;6.20;3.92;;;;;;;;;;5034713;28;20501;-59
2023/07/31 09:31:52;;;;;;;6.72;4.28;;;;;;;;;;5039792;28;20429;-60
2023/07/31 09:34:19;;;;;;;4.88;3.55;;;;;;;;;;5031285;28;20490;-59
2023/07/31 09:36:47;;;;;;;5.30;3.70;;;;;;;;;;5026573;28;20432;-61
2023/07/31 09:39:15;;;;;;;5.43;3.88;;;;;;;;;;5027892;28;20431;-61
2023/07/31 09:41:43;;;;;;;5.32;3.38;;;;;;;;;;5039422;28;20458;-61
2023/07/31 09:44:12;;;;;;;4.75;3.40;;;;;;;;;;5043188;28;20421;-59
2023/07/31 09:46:39;;;;;;;5.43;3.30;;;;;;;;;;5031722;28;20481;-58
2023/07/31 09:49:08;;;;;;;4.95;3.40;;;;;;;;;;5038813;28;20421;-57
2023/07/31 09:51:38;;;;;;;6.75;3.20;;;;;;;;;;5034783;28;20426;-59
2023/07/31 09:54:05;;;;;;;3.75;2.92;;;;;;;;;;5038201;28;20429;-57
2023/07/31 09:56:33;;;;;;;5.03;3.50;;;;;;;;;;5039886;28;20450;-63
2023/07/31 09:59:00;;;;;;;4.80;3.30;;;;;;;;;;5034669;28;20430;-62
2023/07/31 10:01:29;;;;;;;4.85;3.40;;;;;;;;;;5038161;28;20485;-61
2023/07/31 10:03:56;;;;;;;4.82;3.17;;;;;;;;;;5036465;28;20410;-61
2023/07/31 10:06:23;;;;;;;4.10;3.20;;;;;;;;;;5041679;28;20468;-63
2023/07/31 10:08:51;;;;;;;3.95;2.90;;;;;;;;;;5040615;28;20965;-63
2023/07/31 10:11:18;;;;;;;4.30;3.38;;;;;;;;;;5036040;28;20973;-59
2023/07/31 10:13:45;;;;;;;5.07;3.42;;;;;;;;;;5038536;28;20449;-65
2023/07/31 10:16:13;;;;;;;9.53;4.77;;;;;;;;;;5034252;28;20576;-64
2023/07/31 10:18:43;;;;;;;4.95;3.05;;;;;;;;;;5039004;28;20850;-63
2023/07/31 10:21:10;;;;;;;3.78;2.90;;;;;;;;;;5039414;28;20450;-64
2023/07/31 10:23:38;;;;;;;4.18;2.80;;;;;;;;;;5036799;28;20423;-64
2023/07/31 10:26:06;;;;;;;4.18;2.70;;;;;;;;;;5040426;28;20427;-64
2023/07/31 10:28:34;;;;;;;3.40;2.70;;;;;;;;;;5041779;28;20492;-64
2023/07/31 10:31:02;;;;;;;3.30;2.70;;;;;;;;;;5039914;28;20419;-64
2023/07/31 10:33:29;;;;;;;3.60;2.58;;;;;;;;;;5037863;28;20442;-64
2023/07/31 10:36:11;;;;;;;2.88;2.22;;;;;;;;;;5034900;28;20538;-64
2023/07/31 10:38:40;;;;;;;2.67;2.27;;;;;;;;;;5037182;28;20419;-65
2023/07/31 10:41:09;;;;;;;4.05;2.30;;;;;;;;;;5038996;28;20429;-65
2023/07/31 10:43:37;;;;;;;3.95;2.45;;;;;;;;;;5039730;28;20423;-64
2023/07/31 10:46:08;;;;;;;5.22;3.00;;;;;;;;;;5038598;28;20417;-65
2023/07/31 10:48:36;;;;;;;3.92;2.83;;;;;;;;;;5041666;28;20876;-64
2023/07/31 10:51:08;;;;;;;3.70;2.90;;;;;;;;;;5043248;28;20531;-64
2023/07/31 10:53:35;;;;;;;5.95;3.10;;;;;;;;;;5041725;28;20783;-64
2023/07/31 10:56:04;;;;;;;5.75;3.40;;;;;;;;;;5042093;28;20427;-64
2023/07/31 10:58:32;;;;;;;4.47;3.20;;;;;;;;;;5041618;28;20423;-64
2023/07/31 11:01:00;;;;;;;6.07;3.60;;;;;;;;;;5039521;28;20426;-64
2023/07/31 11:03:27;;;;;;;7.03;3.75;;;;;;;;;;5035104;28;20419;-64
2023/07/31 11:06:02;;;;;;;7.85;4.18;;;;;;;;;;5034022;28;20774;-63
2023/07/31 11:08:30;;;;;;;6.60;4.17;;;;;;;;;;5046879;28;20536;-66
2023/07/31 11:11:08;;;;;;;6.07;4.22;;;;;;;;;;5039738;28;20901;-65
2023/07/31 11:13:36;;;;;;;6.32;3.60;;;;;;;;;;5041191;28;20415;-65
2023/07/31 11:16:03;;;;;;;5.30;3.90;;;;;;;;;;5041553;28;20928;-66
2023/07/31 11:18:30;;;;;;;8.23;4.60;;;;;;;;;;5040647;28;20419;-66
2023/07/31 11:20:57;;;;;;;6.50;3.90;;;;;;;;;;5039308;28;20419;-66
2023/07/31 11:23:24;;;;;;;6.85;3.95;;;;;;;;;;5040355;28;20413;-67
2023/07/31 11:25:51;;;;;;;6.18;3.92;;;;;;;;;;5039707;28;20407;-66
2023/07/31 11:28:21;;;;;;;6.78;3.92;;;;;;;;;;5046262;28;20413;-65
2023/07/31 11:30:48;;;;;;;6.40;3.50;;;;;;;;;;5043196;28;20415;-64
2023/07/31 11:33:16;;;;;;;8.90;3.95;;;;;;;;;;5040819;28;20480;-64
2023/07/31 11:35:44;;;;;;;6.78;3.83;;;;;;;;;;5040185;28;20433;-65
2023/07/31 11:38:11;;;;;;;5.90;3.95;;;;;;;;;;5040820;28;20425;-65
2023/07/31 11:40:43;;;;;;;6.05;3.95;;;;;;;;;;5040943;28;20759;-65
2023/07/31 11:43:11;;;;;;;6.35;4.00;;;;;;;;;;5036761;28;20439;-65
2023/07/31 11:45:39;;;;;;;5.83;3.87;;;;;;;;;;5038834;28;20854;-66
2023/07/31 11:48:06;;;;;;;6.93;3.85;;;;;;;;;;5039867;28;20425;-65
2023/07/31 11:50:35;;;;;;;6.70;3.92;;;;;;;;;;5042257;28;20848;-65
2023/07/31 11:53:04;;;;;;;6.67;3.53;;;;;;;;;;5035095;28;20824;-64
2023/07/31 11:55:32;;;;;;;6.93;4.03;;;;;;;;;;5040612;28;20434;-64
2023/07/31 11:57:59;;;;;;;7.10;3.53;;;;;;;;;;5031920;28;20430;-65
2023/07/31 12:00:26;;;;;;;6.47;3.47;;;;;;;;;;5038760;28;20424;-65
2023/07/31 12:02:54;;;;;;;5.38;3.50;;;;;;;;;;5037188;28;20430;-64
2023/07/31 12:05:23;;;;;;;4.43;3.17;;;;;;;;;;5042784;28;20413;-64
2023/07/31 12:07:51;;;;;;;5.40;3.00;;;;;;;;;;5049113;28;20422;-64
2023/07/31 12:10:28;;;;;;;6.45;2.80;;;;;;;;;;5049362;28;20484;-65
2023/07/31 12:13:05;;;;;;;5.57;3.00;;;;;;;;;;5045990;28;20791;-65
2023/07/31 12:15:33;;;;;;;4.85;2.88;;;;;;;;;;5040332;28;20446;-64
2023/07/31 12:18:02;;;;;;;4.60;2.42;;;;;;;;;;5041100;28;20417;-64
2023/07/31 12:20:31;;;;;;;4.65;2.78;;;;;;;;;;5037650;28;20795;-63
2023/07/31 12:22:58;;;;;;;3.55;2.47;;;;;;;;;;5031598;28;20913;-60
2023/07/31 12:25:30;;;;;;;4.30;2.88;;;;;;;;;;5044807;28;20415;-63
2023/07/31 12:27:57;;;;;;;5.18;2.55;;;;;;;;;;5045814;28;20801;-64
2023/07/31 12:30:30;;;;;;;5.15;2.85;;;;;;;;;;5040805;28;20425;-62
2023/07/31 12:32:57;;;;;;;4.05;2.50;;;;;;;;;;5033672;28;20415;-59
2023/07/31 12:35:25;;;;;;;3.22;2.38;;;;;;;;;;5038331;28;20431;-58
2023/07/31 12:37:52;;;;;;;3.72;2.40;;;;;;;;;;5038359;28;20822;-60
2023/07/31 12:40:19;;;;;;;6.40;3.22;;;;;;;;;;5033881;28;20415;-60
2023/07/31 12:42:46;;;;;;;4.10;2.45;;;;;;;;;;5042728;28;20469;-59
2023/07/31 12:45:14;;;;;;;3.30;2.70;;;;;;;;;;5039129;28;20419;-61
2023/07/31 12:47:41;;;;;;;4.15;2.70;;;;;;;;;;5041014;28;21177;-58
2023/07/31 12:50:08;;;;;;;5.15;2.95;;;;;;;;;;5041837;28;20436;-59
2023/07/31 12:52:37;;;;;;;5.25;3.20;;;;;;;;;;5045888;28;20519;-62
2023/07/31 12:55:04;;;;;;;4.18;2.65;;;;;;;;;;5043615;28;20427;-62
2023/07/31 12:57:31;;;;;;;4.60;2.50;;;;;;;;;;5040692;28;20428;-61
2023/07/31 12:59:58;;;;;;;3.58;2.70;;;;;;;;;;5038995;28;20419;-61
2023/07/31 13:02:25;;;;;;;3.43;2.53;;;;;;;;;;5041097;28;20425;-61
2023/07/31 13:04:53;;;;;;;5.07;2.40;;;;;;;;;;5037941;28;20419;-61
2023/07/31 13:07:20;;;;;;;4.25;2.47;;;;;;;;;;5041707;28;20413;-58
2023/07/31 13:09:48;;;;;;;3.58;2.30;;;;;;;;;;5037669;28;20417;-60
2023/07/31 13:12:15;;;;;;;6.63;2.40;;;;;;;;;;5044221;28;20419;-64
2023/07/31 13:14:42;;;;;;;2.85;1.90;;;;;;;;;;5038098;28;20432;-63
2023/07/31 13:17:09;;;;;;;4.45;2.00;;;;;;;;;;5040252;28;20424;-64
2023/07/31 13:19:36;;;;;;;3.77;1.90;;;;;;;;;;5036572;28;20447;-63
2023/07/31 13:22:03;;;;;;;2.78;2.10;;;;;;;;;;5038631;28;20528;-60
2023/07/31 13:24:30;;;;;;;3.45;2.38;;;;;;;;;;5038461;28;20914;-61
2023/07/31 13:26:59;;;;;;;3.08;2.30;;;;;;;;;;5039129;28;20411;-59
2023/07/31 13:29:26;;;;;;;3.10;2.23;;;;;;;;;;5039284;28;20912;-60
2023/07/31 13:31:54;;;;;;;3.38;2.40;;;;;;;;;;5041447;28;20421;-58
2023/07/31 13:34:21;;;;;;;3.15;2.50;;;;;;;;;;5038733;28;20472;-60
2023/07/31 13:36:48;;;;;;;3.17;2.58;;;;;;;;;;5037994;28;20481;-55
2023/07/31 13:39:15;;;;;;;3.70;2.90;;;;;;;;;;5039616;28;20421;-62
2023/07/31 13:41:42;;;;;;;4.03;2.67;;;;;;;;;;5040551;28;20410;-60
2023/07/31 13:44:10;;;;;;;3.78;2.50;;;;;;;;;;5042335;28;20469;-59
2023/07/31 13:46:37;;;;;;;4.72;2.80;;;;;;;;;;5038307;28;20422;-60
2023/07/31 13:49:04;;;;;;;3.42;2.65;;;;;;;;;;5040148;28;20414;-59
2023/07/31 13:51:31;;;;;;;5.68;2.75;;;;;;;;;;5041346;28;20913;-60
2023/07/31 13:53:58;;;;;;;4.97;2.85;;;;;;;;;;5037800;28;20488;-59
2023/07/31 13:56:25;;;;;;;3.80;2.65;;;;;;;;;;5039180;28;20923;-59
2023/07/31 13:58:52;;;;;;;3.92;2.85;;;;;;;;;;5045320;28;20465;-59
2023/07/31 14:01:21;;;;;;;5.33;3.10;;;;;;;;;;5040335;28;20413;-59
2023/07/31 14:03:48;;;;;;;6.28;2.80;;;;;;;;;;5036464;28;20824;-60
2023/07/31 14:06:15;;;;;;;4.30;3.20;;;;;;;;;;5040054;28;20419;-60
2023/07/31 14:08:42;;;;;;;4.13;3.20;;;;;;;;;;5036418;28;20424;-59
2023/07/31 14:11:09;;;;;;;5.50;3.20;;;;;;;;;;5041496;28;20519;-58
2023/07/31 14:13:36;;;;;;;4.72;3.03;;;;;;;;;;5032929;28;20421;-62
2023/07/31 14:16:03;;;;;;;5.25;3.25;;;;;;;;;;5034314;28;20854;-62
2023/07/31 14:18:31;;;;;;;5.40;3.38;;;;;;;;;;5037329;28;20467;-62
2023/07/31 14:20:58;;;;;;;5.45;3.47;;;;;;;;;;5036678;28;20821;-61
2023/07/31 14:23:25;;;;;;;6.38;3.55;;;;;;;;;;5043215;28;20421;-62
2023/07/31 14:25:52;;;;;;;5.47;3.20;;;;;;;;;;5041969;28;20419;-62
2023/07/31 14:28:19;;;;;;;7.57;3.67;;;;;;;;;;5043169;28;20448;-62
2023/07/31 14:30:47;;;;;;;6.35;3.20;;;;;;;;;;5039936;28;20902;-62
2023/07/31 14:33:14;;;;;;;4.95;3.20;;;;;;;;;;5042056;28;20421;-60
2023/07/31 14:35:42;;;;;;;6.50;3.28;;;;;;;;;;5040086;28;20481;-60
2023/07/31 14:38:09;;;;;;;6.50;3.45;;;;;;;;;;5042718;28;20415;-60